sensor_id;sensor_type;location;lat;lon;timestamp;P1;durP1;ratioP1;P2;durP2;ratioP2
55672;SDS011;41554;45.366;20.400;2023-01-10T00:01:26;17.42;;;11.38;;
55672;SDS011;41554;45.366;20.400;2023-01-10T00:03:52;21.38;;;13.00;;
55672;SDS011;41554;45.366;20.400;2023-01-10T00:06:18;22.38;;;14.10;;
55672;SDS011;41554;45.366;20.400;2023-01-10T00:08:44;24.73;;;13.55;;
55672;SDS011;41554;45.366;20.400;2023-01-10T00:11:10;20.88;;;14.80;;
55672;SDS011;41554;45.366;20.400;2023-01-10T00:13:55;17.73;;;13.32;;
55672;SDS011;41554;45.366;20.400;2023-01-10T00:16:21;16.90;;;12.23;;
55672;SDS011;41554;45.366;20.400;2023-01-10T00:18:48;25.17;;;12.50;;
55672;SDS011;41554;45.366;20.400;2023-01-10T00:21:14;20.90;;;13.23;;
55672;SDS011;41554;45.366;20.400;2023-01-10T00:23:41;16.70;;;14.13;;
55672;SDS011;41554;45.366;20.400;2023-01-10T00:26:08;27.15;;;16.67;;
55672;SDS011;41554;45.366;20.400;2023-01-10T00:28:34;18.52;;;11.80;;
55672;SDS011;41554;45.366;20.400;2023-01-10T00:31:00;18.27;;;13.88;;
55672;SDS011;41554;45.366;20.400;2023-01-10T00:33:31;21.52;;;18.33;;
55672;SDS011;41554;45.366;20.400;2023-01-10T00:35:57;16.65;;;12.43;;
55672;SDS011;41554;45.366;20.400;2023-01-10T00:38:23;19.52;;;15.48;;
55672;SDS011;41554;45.366;20.400;2023-01-10T00:40:49;24.10;;;16.30;;
55672;SDS011;41554;45.366;20.400;2023-01-10T00:43:15;28.27;;;16.92;;
55672;SDS011;41554;45.366;20.400;2023-01-10T00:46:00;27.60;;;16.70;;
55672;SDS011;41554;45.366;20.400;2023-01-10T00:48:26;24.38;;;15.40;;
55672;SDS011;41554;45.366;20.400;2023-01-10T00:50:52;30.48;;;19.38;;
55672;SDS011;41554;45.366;20.400;2023-01-10T00:53:19;18.80;;;13.90;;
55672;SDS011;41554;45.366;20.400;2023-01-10T00:55:45;20.42;;;14.02;;
55672;SDS011;41554;45.366;20.400;2023-01-10T00:58:14;20.45;;;16.80;;
55672;SDS011;41554;45.366;20.400;2023-01-10T01:00:41;17.98;;;13.80;;
55672;SDS011;41554;45.366;20.400;2023-01-10T01:03:07;24.13;;;15.80;;
55672;SDS011;41554;45.366;20.400;2023-01-10T01:05:38;16.27;;;12.45;;
55672;SDS011;41554;45.366;20.400;2023-01-10T01:08:04;17.08;;;11.45;;
55672;SDS011;41554;45.366;20.400;2023-01-10T01:10:30;16.95;;;12.57;;
55672;SDS011;41554;45.366;20.400;2023-01-10T01:12:57;18.73;;;12.32;;
55672;SDS011;41554;45.366;20.400;2023-01-10T01:15:24;24.95;;;13.63;;
55672;SDS011;41554;45.366;20.400;2023-01-10T01:17:50;24.55;;;13.65;;
55672;SDS011;41554;45.366;20.400;2023-01-10T01:20:16;17.80;;;13.48;;
55672;SDS011;41554;45.366;20.400;2023-01-10T01:22:42;19.17;;;13.57;;
55672;SDS011;41554;45.366;20.400;2023-01-10T01:25:09;22.67;;;14.05;;
55672;SDS011;41554;45.366;20.400;2023-01-10T01:27:35;18.70;;;13.27;;
55672;SDS011;41554;45.366;20.400;2023-01-10T01:30:02;31.35;;;12.73;;
55672;SDS011;41554;45.366;20.400;2023-01-10T01:32:28;21.02;;;14.23;;
55672;SDS011;41554;45.366;20.400;2023-01-10T01:34:54;18.58;;;12.82;;
55672;SDS011;41554;45.366;20.400;2023-01-10T01:37:20;20.05;;;14.18;;
55672;SDS011;41554;45.366;20.400;2023-01-10T01:39:47;17.48;;;12.88;;
55672;SDS011;41554;45.366;20.400;2023-01-10T01:42:21;21.80;;;13.90;;
55672;SDS011;41554;45.366;20.400;2023-01-10T01:45:11;23.70;;;15.27;;
55672;SDS011;41554;45.366;20.400;2023-01-10T01:47:48;21.77;;;14.45;;
55672;SDS011;41554;45.366;20.400;2023-01-10T01:50:16;21.75;;;13.48;;
55672;SDS011;41554;45.366;20.400;2023-01-10T01:52:44;29.15;;;15.77;;
55672;SDS011;41554;45.366;20.400;2023-01-10T01:55:11;18.63;;;13.65;;
55672;SDS011;41554;45.366;20.400;2023-01-10T01:57:37;27.63;;;17.05;;
55672;SDS011;41554;45.366;20.400;2023-01-10T02:00:03;27.10;;;16.38;;
55672;SDS011;41554;45.366;20.400;2023-01-10T02:02:35;19.65;;;14.13;;
55672;SDS011;41554;45.366;20.400;2023-01-10T02:05:04;21.13;;;15.18;;
55672;SDS011;41554;45.366;20.400;2023-01-10T02:07:32;21.20;;;14.60;;
55672;SDS011;41554;45.366;20.400;2023-01-10T02:12:33;35.28;;;25.88;;
55672;SDS011;41554;45.366;20.400;2023-01-10T02:15:00;51.75;;;36.00;;
55672;SDS011;41554;45.366;20.400;2023-01-10T02:17:27;33.97;;;23.10;;
55672;SDS011;41554;45.366;20.400;2023-01-10T02:19:54;40.00;;;27.10;;
55672;SDS011;41554;45.366;20.400;2023-01-10T02:37:59;20.88;;;14.52;;
55672;SDS011;41554;45.366;20.400;2023-01-10T02:43:13;21.27;;;13.98;;
55672;SDS011;41554;45.366;20.400;2023-01-10T02:45:40;16.98;;;12.90;;
55672;SDS011;41554;45.366;20.400;2023-01-10T02:48:09;21.77;;;11.82;;
55672;SDS011;41554;45.366;20.400;2023-01-10T02:53:02;18.77;;;12.48;;
55672;SDS011;41554;45.366;20.400;2023-01-10T02:55:36;19.30;;;15.13;;
55672;SDS011;41554;45.366;20.400;2023-01-10T03:00:56;25.48;;;16.17;;
55672;SDS011;41554;45.366;20.400;2023-01-10T03:11:18;22.65;;;12.63;;
55672;SDS011;41554;45.366;20.400;2023-01-10T03:14:04;18.27;;;12.13;;
55672;SDS011;41554;45.366;20.400;2023-01-10T03:16:31;19.95;;;13.07;;
55672;SDS011;41554;45.366;20.400;2023-01-10T03:19:18;17.10;;;10.23;;
55672;SDS011;41554;45.366;20.400;2023-01-10T03:21:46;18.48;;;10.65;;
55672;SDS011;41554;45.366;20.400;2023-01-10T03:24:15;16.30;;;13.05;;
55672;SDS011;41554;45.366;20.400;2023-01-10T03:26:51;17.02;;;12.65;;
55672;SDS011;41554;45.366;20.400;2023-01-10T03:29:22;14.98;;;10.43;;
55672;SDS011;41554;45.366;20.400;2023-01-10T03:31:51;17.60;;;11.68;;
55672;SDS011;41554;45.366;20.400;2023-01-10T03:34:17;19.58;;;13.15;;
55672;SDS011;41554;45.366;20.400;2023-01-10T03:36:51;23.65;;;14.38;;
55672;SDS011;41554;45.366;20.400;2023-01-10T03:39:20;19.50;;;13.73;;
55672;SDS011;41554;45.366;20.400;2023-01-10T03:41:51;27.25;;;11.60;;
55672;SDS011;41554;45.366;20.400;2023-01-10T03:45:05;17.67;;;12.50;;
55672;SDS011;41554;45.366;20.400;2023-01-10T03:50:09;21.00;;;12.75;;
55672;SDS011;41554;45.366;20.400;2023-01-10T03:52:36;19.17;;;13.27;;
55672;SDS011;41554;45.366;20.400;2023-01-10T03:55:02;14.48;;;12.48;;
55672;SDS011;41554;45.366;20.400;2023-01-10T03:57:29;18.42;;;14.00;;
55672;SDS011;41554;45.366;20.400;2023-01-10T03:59:56;19.95;;;14.02;;
55672;SDS011;41554;45.366;20.400;2023-01-10T04:02:26;19.33;;;14.43;;
55672;SDS011;41554;45.366;20.400;2023-01-10T04:04:53;26.10;;;17.33;;
55672;SDS011;41554;45.366;20.400;2023-01-10T04:07:19;21.50;;;14.88;;
55672;SDS011;41554;45.366;20.400;2023-01-10T04:09:45;32.13;;;22.17;;
55672;SDS011;41554;45.366;20.400;2023-01-10T04:12:11;22.77;;;18.55;;
55672;SDS011;41554;45.366;20.400;2023-01-10T04:14:37;23.48;;;15.85;;
55672;SDS011;41554;45.366;20.400;2023-01-10T04:17:03;27.60;;;17.95;;
55672;SDS011;41554;45.366;20.400;2023-01-10T04:19:30;21.55;;;17.58;;
55672;SDS011;41554;45.366;20.400;2023-01-10T04:21:56;18.58;;;14.20;;
55672;SDS011;41554;45.366;20.400;2023-01-10T04:24:22;22.08;;;14.77;;
55672;SDS011;41554;45.366;20.400;2023-01-10T04:26:48;20.30;;;13.55;;
55672;SDS011;41554;45.366;20.400;2023-01-10T04:29:14;16.55;;;10.82;;
55672;SDS011;41554;45.366;20.400;2023-01-10T04:31:40;11.23;;;8.75;;
55672;SDS011;41554;45.366;20.400;2023-01-10T04:34:07;10.38;;;8.32;;
55672;SDS011;41554;45.366;20.400;2023-01-10T04:36:33;10.35;;;8.02;;
55672;SDS011;41554;45.366;20.400;2023-01-10T04:39:00;9.30;;;5.25;;
55672;SDS011;41554;45.366;20.400;2023-01-10T04:41:26;7.95;;;6.82;;
55672;SDS011;41554;45.366;20.400;2023-01-10T04:43:52;10.80;;;6.28;;
55672;SDS011;41554;45.366;20.400;2023-01-10T04:46:18;8.20;;;4.90;;
55672;SDS011;41554;45.366;20.400;2023-01-10T04:48:44;7.78;;;6.45;;
55672;SDS011;41554;45.366;20.400;2023-01-10T04:51:10;5.00;;;4.55;;
55672;SDS011;41554;45.366;20.400;2023-01-10T04:53:36;8.73;;;5.63;;
55672;SDS011;41554;45.366;20.400;2023-01-10T04:56:03;6.20;;;4.97;;
55672;SDS011;41554;45.366;20.400;2023-01-10T04:58:35;6.80;;;4.88;;
55672;SDS011;41554;45.366;20.400;2023-01-10T05:01:08;8.48;;;4.78;;
55672;SDS011;41554;45.366;20.400;2023-01-10T05:03:34;6.95;;;5.82;;
55672;SDS011;41554;45.366;20.400;2023-01-10T05:06:01;6.05;;;4.53;;
55672;SDS011;41554;45.366;20.400;2023-01-10T05:08:27;8.35;;;5.53;;
55672;SDS011;41554;45.366;20.400;2023-01-10T05:10:53;8.05;;;4.63;;
55672;SDS011;41554;45.366;20.400;2023-01-10T05:13:19;7.72;;;5.32;;
55672;SDS011;41554;45.366;20.400;2023-01-10T05:15:45;5.25;;;4.47;;
55672;SDS011;41554;45.366;20.400;2023-01-10T05:18:11;9.02;;;6.43;;
55672;SDS011;41554;45.366;20.400;2023-01-10T05:20:37;5.53;;;3.90;;
55672;SDS011;41554;45.366;20.400;2023-01-10T05:23:03;5.60;;;4.47;;
55672;SDS011;41554;45.366;20.400;2023-01-10T05:25:29;7.72;;;4.65;;
55672;SDS011;41554;45.366;20.400;2023-01-10T05:27:55;4.95;;;4.25;;
55672;SDS011;41554;45.366;20.400;2023-01-10T05:30:21;5.22;;;4.03;;
55672;SDS011;41554;45.366;20.400;2023-01-10T05:32:47;6.70;;;4.32;;
55672;SDS011;41554;45.366;20.400;2023-01-10T05:35:13;4.90;;;3.72;;
55672;SDS011;41554;45.366;20.400;2023-01-10T05:37:41;6.47;;;3.40;;
55672;SDS011;41554;45.366;20.400;2023-01-10T05:40:09;10.75;;;4.53;;
55672;SDS011;41554;45.366;20.400;2023-01-10T05:42:35;5.07;;;3.55;;
55672;SDS011;41554;45.366;20.400;2023-01-10T05:45:01;5.03;;;3.08;;
55672;SDS011;41554;45.366;20.400;2023-01-10T05:47:27;5.70;;;3.92;;
55672;SDS011;41554;45.366;20.400;2023-01-10T05:49:53;5.18;;;3.95;;
55672;SDS011;41554;45.366;20.400;2023-01-10T05:52:19;5.60;;;4.18;;
55672;SDS011;41554;45.366;20.400;2023-01-10T05:54:45;4.05;;;3.20;;
55672;SDS011;41554;45.366;20.400;2023-01-10T05:57:11;4.10;;;3.10;;
55672;SDS011;41554;45.366;20.400;2023-01-10T05:59:37;3.00;;;2.25;;
55672;SDS011;41554;45.366;20.400;2023-01-10T06:02:04;4.30;;;3.20;;
55672;SDS011;41554;45.366;20.400;2023-01-10T06:04:30;3.67;;;2.70;;
55672;SDS011;41554;45.366;20.400;2023-01-10T06:06:56;3.03;;;2.65;;
55672;SDS011;41554;45.366;20.400;2023-01-10T06:09:22;4.57;;;3.55;;
55672;SDS011;41554;45.366;20.400;2023-01-10T06:11:48;4.30;;;2.47;;
55672;SDS011;41554;45.366;20.400;2023-01-10T06:14:14;3.00;;;2.58;;
55672;SDS011;41554;45.366;20.400;2023-01-10T06:16:43;9.35;;;3.75;;
55672;SDS011;41554;45.366;20.400;2023-01-10T06:19:09;5.07;;;2.65;;
55672;SDS011;41554;45.366;20.400;2023-01-10T06:21:35;6.47;;;2.75;;
55672;SDS011;41554;45.366;20.400;2023-01-10T06:24:02;6.38;;;3.55;;
55672;SDS011;41554;45.366;20.400;2023-01-10T06:26:28;5.43;;;3.28;;
55672;SDS011;41554;45.366;20.400;2023-01-10T06:28:54;4.50;;;2.83;;
55672;SDS011;41554;45.366;20.400;2023-01-10T06:31:20;4.60;;;3.20;;
55672;SDS011;41554;45.366;20.400;2023-01-10T06:33:48;5.50;;;4.03;;
55672;SDS011;41554;45.366;20.400;2023-01-10T06:36:14;4.75;;;3.92;;
55672;SDS011;41554;45.366;20.400;2023-01-10T06:38:40;3.92;;;3.53;;
55672;SDS011;41554;45.366;20.400;2023-01-10T06:41:07;3.13;;;2.22;;
55672;SDS011;41554;45.366;20.400;2023-01-10T06:43:42;5.32;;;3.47;;
55672;SDS011;41554;45.366;20.400;2023-01-10T06:46:09;8.25;;;4.18;;
55672;SDS011;41554;45.366;20.400;2023-01-10T06:48:36;5.32;;;4.03;;
55672;SDS011;41554;45.366;20.400;2023-01-10T06:51:02;4.10;;;2.65;;
55672;SDS011;41554;45.366;20.400;2023-01-10T06:53:28;5.88;;;3.60;;
55672;SDS011;41554;45.366;20.400;2023-01-10T06:55:55;3.67;;;3.17;;
55672;SDS011;41554;45.366;20.400;2023-01-10T06:58:21;4.72;;;3.40;;
55672;SDS011;41554;45.366;20.400;2023-01-10T07:00:47;3.70;;;2.80;;
55672;SDS011;41554;45.366;20.400;2023-01-10T07:03:13;3.40;;;2.42;;
55672;SDS011;41554;45.366;20.400;2023-01-10T07:05:39;3.80;;;3.20;;
55672;SDS011;41554;45.366;20.400;2023-01-10T07:08:05;5.10;;;3.72;;
55672;SDS011;41554;45.366;20.400;2023-01-10T07:10:31;4.00;;;3.17;;
55672;SDS011;41554;45.366;20.400;2023-01-10T07:12:57;6.22;;;3.90;;
55672;SDS011;41554;45.366;20.400;2023-01-10T07:15:24;12.90;;;3.53;;
55672;SDS011;41554;45.366;20.400;2023-01-10T07:17:50;3.85;;;2.92;;
55672;SDS011;41554;45.366;20.400;2023-01-10T07:20:16;3.90;;;2.97;;
55672;SDS011;41554;45.366;20.400;2023-01-10T07:22:43;3.33;;;2.55;;
55672;SDS011;41554;45.366;20.400;2023-01-10T07:25:09;2.78;;;2.28;;
55672;SDS011;41554;45.366;20.400;2023-01-10T07:27:35;3.35;;;2.85;;
55672;SDS011;41554;45.366;20.400;2023-01-10T07:30:02;3.78;;;3.33;;
55672;SDS011;41554;45.366;20.400;2023-01-10T07:32:28;3.22;;;2.63;;
55672;SDS011;41554;45.366;20.400;2023-01-10T07:34:55;4.43;;;3.08;;
55672;SDS011;41554;45.366;20.400;2023-01-10T07:37:21;3.55;;;2.78;;
55672;SDS011;41554;45.366;20.400;2023-01-10T07:39:47;3.22;;;2.92;;
55672;SDS011;41554;45.366;20.400;2023-01-10T07:42:13;4.70;;;2.75;;
55672;SDS011;41554;45.366;20.400;2023-01-10T07:44:39;3.70;;;3.30;;
55672;SDS011;41554;45.366;20.400;2023-01-10T07:47:05;12.75;;;6.45;;
55672;SDS011;41554;45.366;20.400;2023-01-10T07:49:31;18.15;;;8.77;;
55672;SDS011;41554;45.366;20.400;2023-01-10T07:51:57;6.65;;;3.42;;
55672;SDS011;41554;45.366;20.400;2023-01-10T07:54:23;7.32;;;5.40;;
55672;SDS011;41554;45.366;20.400;2023-01-10T07:56:49;5.70;;;4.15;;
55672;SDS011;41554;45.366;20.400;2023-01-10T07:59:15;7.70;;;4.60;;
55672;SDS011;41554;45.366;20.400;2023-01-10T08:01:41;5.72;;;2.90;;
55672;SDS011;41554;45.366;20.400;2023-01-10T08:04:07;6.93;;;4.05;;
55672;SDS011;41554;45.366;20.400;2023-01-10T08:06:34;3.35;;;2.85;;
55672;SDS011;41554;45.366;20.400;2023-01-10T08:09:00;5.90;;;3.63;;
55672;SDS011;41554;45.366;20.400;2023-01-10T08:11:29;3.17;;;2.80;;
55672;SDS011;41554;45.366;20.400;2023-01-10T08:13:55;4.05;;;3.05;;
55672;SDS011;41554;45.366;20.400;2023-01-10T08:16:21;5.25;;;3.45;;
55672;SDS011;41554;45.366;20.400;2023-01-10T08:18:47;6.07;;;3.38;;
55672;SDS011;41554;45.366;20.400;2023-01-10T08:21:13;3.28;;;2.60;;
55672;SDS011;41554;45.366;20.400;2023-01-10T08:23:39;4.00;;;3.15;;
55672;SDS011;41554;45.366;20.400;2023-01-10T08:26:05;3.75;;;3.13;;
55672;SDS011;41554;45.366;20.400;2023-01-10T08:28:31;2.83;;;2.38;;
55672;SDS011;41554;45.366;20.400;2023-01-10T08:30:57;6.93;;;3.25;;
55672;SDS011;41554;45.366;20.400;2023-01-10T08:33:24;5.13;;;3.22;;
55672;SDS011;41554;45.366;20.400;2023-01-10T08:35:51;5.30;;;4.30;;
55672;SDS011;41554;45.366;20.400;2023-01-10T08:38:17;5.65;;;3.05;;
55672;SDS011;41554;45.366;20.400;2023-01-10T08:40:43;4.65;;;2.28;;
55672;SDS011;41554;45.366;20.400;2023-01-10T08:43:10;2.85;;;2.50;;
55672;SDS011;41554;45.366;20.400;2023-01-10T08:45:36;3.78;;;2.80;;
55672;SDS011;41554;45.366;20.400;2023-01-10T08:48:03;3.60;;;3.00;;
55672;SDS011;41554;45.366;20.400;2023-01-10T08:50:29;5.18;;;3.60;;
55672;SDS011;41554;45.366;20.400;2023-01-10T08:52:56;5.75;;;3.72;;
55672;SDS011;41554;45.366;20.400;2023-01-10T08:55:23;9.90;;;3.75;;
55672;SDS011;41554;45.366;20.400;2023-01-10T08:57:50;5.60;;;3.53;;
55672;SDS011;41554;45.366;20.400;2023-01-10T09:00:16;6.55;;;3.63;;
55672;SDS011;41554;45.366;20.400;2023-01-10T09:02:42;4.53;;;3.53;;
55672;SDS011;41554;45.366;20.400;2023-01-10T09:05:09;5.30;;;3.45;;
55672;SDS011;41554;45.366;20.400;2023-01-10T09:07:35;5.45;;;2.22;;
55672;SDS011;41554;45.366;20.400;2023-01-10T09:10:01;4.95;;;3.42;;
55672;SDS011;41554;45.366;20.400;2023-01-10T09:12:27;4.03;;;3.10;;
55672;SDS011;41554;45.366;20.400;2023-01-10T09:15:12;3.83;;;2.75;;
55672;SDS011;41554;45.366;20.400;2023-01-10T09:17:38;3.90;;;2.75;;
55672;SDS011;41554;45.366;20.400;2023-01-10T09:20:05;6.32;;;3.80;;
55672;SDS011;41554;45.366;20.400;2023-01-10T09:22:34;3.55;;;2.85;;
55672;SDS011;41554;45.366;20.400;2023-01-10T09:25:00;5.53;;;3.88;;
55672;SDS011;41554;45.366;20.400;2023-01-10T09:27:26;5.97;;;3.20;;
55672;SDS011;41554;45.366;20.400;2023-01-10T09:29:52;8.88;;;3.28;;
55672;SDS011;41554;45.366;20.400;2023-01-10T09:32:18;4.15;;;2.97;;
55672;SDS011;41554;45.366;20.400;2023-01-10T09:34:44;8.27;;;4.53;;
55672;SDS011;41554;45.366;20.400;2023-01-10T09:37:10;6.93;;;4.55;;
55672;SDS011;41554;45.366;20.400;2023-01-10T09:39:36;6.50;;;5.68;;
55672;SDS011;41554;45.366;20.400;2023-01-10T09:52:43;3.00;;;2.35;;
55672;SDS011;41554;45.366;20.400;2023-01-10T09:57:42;3.10;;;2.53;;
55672;SDS011;41554;45.366;20.400;2023-01-10T10:00:14;5.38;;;3.70;;
55672;SDS011;41554;45.366;20.400;2023-01-10T10:02:40;8.38;;;3.65;;
55672;SDS011;41554;45.366;20.400;2023-01-10T10:07:36;7.65;;;4.43;;
55672;SDS011;41554;45.366;20.400;2023-01-10T10:10:06;35.13;;;12.43;;
55672;SDS011;41554;45.366;20.400;2023-01-10T10:27:22;4.95;;;3.67;;
55672;SDS011;41554;45.366;20.400;2023-01-10T10:30:34;7.20;;;5.53;;
55672;SDS011;41554;45.366;20.400;2023-01-10T10:32:48;14.00;;;5.05;;
55672;SDS011;41554;45.366;20.400;2023-01-10T10:35:24;6.93;;;4.95;;
55672;SDS011;41554;45.366;20.400;2023-01-10T10:37:52;11.10;;;6.20;;
55672;SDS011;41554;45.366;20.400;2023-01-10T10:40:21;10.50;;;6.28;;
55672;SDS011;41554;45.366;20.400;2023-01-10T10:42:48;4.13;;;3.67;;
55672;SDS011;41554;45.366;20.400;2023-01-10T10:47:45;6.10;;;4.63;;
55672;SDS011;41554;45.366;20.400;2023-01-10T10:52:41;6.07;;;4.20;;
55672;SDS011;41554;45.366;20.400;2023-01-10T10:55:12;9.15;;;5.03;;
55672;SDS011;41554;45.366;20.400;2023-01-10T10:57:38;12.77;;;7.65;;
55672;SDS011;41554;45.366;20.400;2023-01-10T11:00:06;8.43;;;5.22;;
55672;SDS011;41554;45.366;20.400;2023-01-10T11:02:40;4.32;;;2.45;;
55672;SDS011;41554;45.366;20.400;2023-01-10T11:05:13;6.05;;;4.30;;
55672;SDS011;41554;45.366;20.400;2023-01-10T11:07:40;8.00;;;5.35;;
55672;SDS011;41554;45.366;20.400;2023-01-10T11:10:11;5.00;;;3.50;;
55672;SDS011;41554;45.366;20.400;2023-01-10T11:12:45;9.95;;;5.75;;
55672;SDS011;41554;45.366;20.400;2023-01-10T11:17:40;4.45;;;3.05;;
55672;SDS011;41554;45.366;20.400;2023-01-10T11:20:13;12.98;;;7.22;;
55672;SDS011;41554;45.366;20.400;2023-01-10T11:22:44;8.32;;;4.35;;
55672;SDS011;41554;45.366;20.400;2023-01-10T11:25:15;5.55;;;4.00;;
55672;SDS011;41554;45.366;20.400;2023-01-10T11:27:44;8.27;;;4.28;;
55672;SDS011;41554;45.366;20.400;2023-01-10T11:30:19;3.58;;;2.65;;
55672;SDS011;41554;45.366;20.400;2023-01-10T11:32:53;7.07;;;3.45;;
55672;SDS011;41554;45.366;20.400;2023-01-10T11:35:20;6.65;;;4.43;;
55672;SDS011;41554;45.366;20.400;2023-01-10T11:40:29;7.07;;;4.35;;
55672;SDS011;41554;45.366;20.400;2023-01-10T11:42:58;5.18;;;4.07;;
55672;SDS011;41554;45.366;20.400;2023-01-10T11:50:25;7.95;;;4.22;;
55672;SDS011;41554;45.366;20.400;2023-01-10T11:52:52;19.05;;;10.25;;
55672;SDS011;41554;45.366;20.400;2023-01-10T11:55:25;2.50;;;2.28;;
55672;SDS011;41554;45.366;20.400;2023-01-10T12:00:22;8.63;;;5.50;;
55672;SDS011;41554;45.366;20.400;2023-01-10T12:02:48;5.05;;;3.50;;
55672;SDS011;41554;45.366;20.400;2023-01-10T12:05:19;8.07;;;3.10;;
55672;SDS011;41554;45.366;20.400;2023-01-10T12:07:54;2.30;;;2.08;;
55672;SDS011;41554;45.366;20.400;2023-01-10T12:10:20;9.95;;;4.25;;
55672;SDS011;41554;45.366;20.400;2023-01-10T12:12:56;7.45;;;4.65;;
55672;SDS011;41554;45.366;20.400;2023-01-10T12:15:25;4.70;;;3.58;;
55672;SDS011;41554;45.366;20.400;2023-01-10T12:17:54;6.15;;;3.10;;
55672;SDS011;41554;45.366;20.400;2023-01-10T12:20:20;6.85;;;3.10;;
55672;SDS011;41554;45.366;20.400;2023-01-10T12:22:53;7.15;;;4.45;;
55672;SDS011;41554;45.366;20.400;2023-01-10T12:25:21;5.30;;;3.08;;
55672;SDS011;41554;45.366;20.400;2023-01-10T12:27:48;5.10;;;3.90;;
55672;SDS011;41554;45.366;20.400;2023-01-10T12:33:00;5.93;;;4.25;;
55672;SDS011;41554;45.366;20.400;2023-01-10T12:36:14;3.60;;;2.58;;
55672;SDS011;41554;45.366;20.400;2023-01-10T12:38:31;3.85;;;2.70;;
55672;SDS011;41554;45.366;20.400;2023-01-10T12:41:27;6.65;;;3.60;;
55672;SDS011;41554;45.366;20.400;2023-01-10T12:44:15;13.38;;;4.97;;
55672;SDS011;41554;45.366;20.400;2023-01-10T12:46:49;5.35;;;3.42;;
55672;SDS011;41554;45.366;20.400;2023-01-10T12:49:23;5.15;;;3.80;;
55672;SDS011;41554;45.366;20.400;2023-01-10T12:51:51;6.45;;;4.55;;
55672;SDS011;41554;45.366;20.400;2023-01-10T12:54:23;6.85;;;4.20;;
55672;SDS011;41554;45.366;20.400;2023-01-10T12:56:52;5.28;;;3.67;;
55672;SDS011;41554;45.366;20.400;2023-01-10T12:59:30;7.45;;;4.07;;
55672;SDS011;41554;45.366;20.400;2023-01-10T13:02:03;21.60;;;7.10;;
55672;SDS011;41554;45.366;20.400;2023-01-10T13:04:31;5.28;;;4.30;;
55672;SDS011;41554;45.366;20.400;2023-01-10T13:07:02;4.90;;;4.38;;
55672;SDS011;41554;45.366;20.400;2023-01-10T13:09:28;5.63;;;3.65;;
55672;SDS011;41554;45.366;20.400;2023-01-10T13:19:40;5.30;;;3.17;;
55672;SDS011;41554;45.366;20.400;2023-01-10T13:24:41;5.80;;;4.05;;
55672;SDS011;41554;45.366;20.400;2023-01-10T13:27:19;6.05;;;4.00;;
55672;SDS011;41554;45.366;20.400;2023-01-10T13:29:45;5.25;;;3.97;;
55672;SDS011;41554;45.366;20.400;2023-01-10T13:34:45;7.72;;;5.10;;
55672;SDS011;41554;45.366;20.400;2023-01-10T13:37:21;6.32;;;4.60;;
55672;SDS011;41554;45.366;20.400;2023-01-10T13:39:55;9.10;;;5.55;;
55672;SDS011;41554;45.366;20.400;2023-01-10T14:00:52;8.07;;;6.90;;
55672;SDS011;41554;45.366;20.400;2023-01-10T14:06:30;10.27;;;8.02;;
55672;SDS011;41554;45.366;20.400;2023-01-10T14:09:26;13.95;;;7.25;;
55672;SDS011;41554;45.366;20.400;2023-01-10T14:11:59;10.90;;;7.25;;
55672;SDS011;41554;45.366;20.400;2023-01-10T14:14:33;7.78;;;5.43;;
55672;SDS011;41554;45.366;20.400;2023-01-10T14:17:13;12.05;;;8.93;;
55672;SDS011;41554;45.366;20.400;2023-01-10T14:19:43;9.50;;;8.40;;
55672;SDS011;41554;45.366;20.400;2023-01-10T14:22:27;14.90;;;10.25;;
55672;SDS011;41554;45.366;20.400;2023-01-10T14:24:55;7.22;;;5.95;;
55672;SDS011;41554;45.366;20.400;2023-01-10T14:27:22;6.13;;;4.53;;
55672;SDS011;41554;45.366;20.400;2023-01-10T14:29:53;5.78;;;4.07;;
55672;SDS011;41554;45.366;20.400;2023-01-10T14:32:34;6.00;;;4.15;;
55672;SDS011;41554;45.366;20.400;2023-01-10T14:35:06;7.10;;;4.00;;
55672;SDS011;41554;45.366;20.400;2023-01-10T14:37:38;3.85;;;2.90;;
55672;SDS011;41554;45.366;20.400;2023-01-10T14:40:11;5.82;;;4.13;;
55672;SDS011;41554;45.366;20.400;2023-01-10T14:42:40;6.63;;;4.28;;
55672;SDS011;41554;45.366;20.400;2023-01-10T14:47:43;7.90;;;5.55;;
55672;SDS011;41554;45.366;20.400;2023-01-10T14:50:27;8.93;;;7.78;;
55672;SDS011;41554;45.366;20.400;2023-01-10T14:52:57;11.40;;;7.75;;
55672;SDS011;41554;45.366;20.400;2023-01-10T14:55:24;13.32;;;9.00;;
55672;SDS011;41554;45.366;20.400;2023-01-10T14:57:56;15.90;;;10.70;;
55672;SDS011;41554;45.366;20.400;2023-01-10T15:00:29;33.83;;;16.45;;
55672;SDS011;41554;45.366;20.400;2023-01-10T15:02:57;13.68;;;8.95;;
55672;SDS011;41554;45.366;20.400;2023-01-10T15:05:24;9.45;;;7.65;;
55672;SDS011;41554;45.366;20.400;2023-01-10T15:07:51;17.83;;;11.15;;
55672;SDS011;41554;45.366;20.400;2023-01-10T15:10:28;12.48;;;8.82;;
55672;SDS011;41554;45.366;20.400;2023-01-10T15:12:57;20.90;;;11.27;;
55672;SDS011;41554;45.366;20.400;2023-01-10T15:15:31;18.63;;;11.20;;
55672;SDS011;41554;45.366;20.400;2023-01-10T15:17:58;16.42;;;10.50;;
55672;SDS011;41554;45.366;20.400;2023-01-10T15:20:24;10.90;;;8.60;;
55672;SDS011;41554;45.366;20.400;2023-01-10T15:22:55;18.15;;;9.98;;
55672;SDS011;41554;45.366;20.400;2023-01-10T15:27:53;8.82;;;7.53;;
55672;SDS011;41554;45.366;20.400;2023-01-10T15:30:28;10.27;;;9.05;;
55672;SDS011;41554;45.366;20.400;2023-01-10T15:32:55;11.35;;;8.85;;
55672;SDS011;41554;45.366;20.400;2023-01-10T15:35:23;10.52;;;8.32;;
55672;SDS011;41554;45.366;20.400;2023-01-10T15:37:56;19.08;;;11.23;;
55672;SDS011;41554;45.366;20.400;2023-01-10T15:40:33;18.13;;;12.30;;
55672;SDS011;41554;45.366;20.400;2023-01-10T15:45:44;20.48;;;11.45;;
55672;SDS011;41554;45.366;20.400;2023-01-10T15:48:30;18.30;;;12.50;;
55672;SDS011;41554;45.366;20.400;2023-01-10T15:56:29;15.70;;;12.15;;
55672;SDS011;41554;45.366;20.400;2023-01-10T15:58:56;15.40;;;10.50;;
55672;SDS011;41554;45.366;20.400;2023-01-10T16:01:24;15.85;;;10.85;;
55672;SDS011;41554;45.366;20.400;2023-01-10T16:03:51;23.90;;;13.70;;
55672;SDS011;41554;45.366;20.400;2023-01-10T16:08:50;13.90;;;10.60;;
55672;SDS011;41554;45.366;20.400;2023-01-10T16:14:06;17.02;;;11.88;;
55672;SDS011;41554;45.366;20.400;2023-01-10T16:16:33;17.27;;;12.13;;
55672;SDS011;41554;45.366;20.400;2023-01-10T16:18:59;17.38;;;11.70;;
55672;SDS011;41554;45.366;20.400;2023-01-10T16:21:29;15.73;;;10.73;;
55672;SDS011;41554;45.366;20.400;2023-01-10T16:23:57;15.95;;;11.63;;
55672;SDS011;41554;45.366;20.400;2023-01-10T16:26:23;19.83;;;13.02;;
55672;SDS011;41554;45.366;20.400;2023-01-10T16:28:49;19.75;;;13.52;;
55672;SDS011;41554;45.366;20.400;2023-01-10T16:31:15;16.92;;;13.70;;
55672;SDS011;41554;45.366;20.400;2023-01-10T16:33:41;20.77;;;15.00;;
55672;SDS011;41554;45.366;20.400;2023-01-10T16:36:16;20.00;;;13.30;;
55672;SDS011;41554;45.366;20.400;2023-01-10T16:38:43;22.02;;;14.68;;
55672;SDS011;41554;45.366;20.400;2023-01-10T16:41:10;16.42;;;12.40;;
55672;SDS011;41554;45.366;20.400;2023-01-10T16:43:55;19.42;;;11.75;;
55672;SDS011;41554;45.366;20.400;2023-01-10T16:46:21;25.10;;;14.43;;
55672;SDS011;41554;45.366;20.400;2023-01-10T16:48:47;20.63;;;15.20;;
55672;SDS011;41554;45.366;20.400;2023-01-10T16:51:23;26.92;;;19.40;;
55672;SDS011;41554;45.366;20.400;2023-01-10T16:53:50;21.58;;;16.33;;